GLO1341 SBRP-SBGR
Flight info
| Callsign | GLO1341 |
|---|---|
| Flight time | 0h 40m |
| Altitude | 34000 |
| Route | ESMIV DCT ZARES |
| Aircraft | B737/M-SDE2E3FGHIRWXY/LB1 |
Departure
| Time | 2026-05-06 00:30 |
|---|---|
| Airport | Leite Lopes Airport (SBRP) |
Arrival
| Time | 2026-05-06 01:11 |
|---|---|
| Airport | São Paulo/Guarulhos–Governor André Franco Montoro International Airport (SBGR) |
| Time | Latitude | Longitude | Altitude | Speed | Heading |
|---|---|---|---|---|---|
| 2026-05-06 00:09 | -21.13914 | -47.77585 | 1818 ft | 0 kts | 253° |
| 2026-05-06 00:22 | -21.13912 | -47.77577 | 1817 ft | 2 kts | 263° |
| 2026-05-06 00:23 | -21.13913 | -47.77561 | 1818 ft | 2 kts | 287° |
| 2026-05-06 00:23 | -21.13919 | -47.77546 | 1818 ft | 2 kts | 308° |
| 2026-05-06 00:23 | -21.13930 | -47.77536 | 1818 ft | 2 kts | 329° |
| 2026-05-06 00:23 | -21.13944 | -47.77530 | 1819 ft | 2 kts | 348° |
| 2026-05-06 00:24 | -21.13950 | -47.77528 | 1819 ft | 0 kts | 345° |
| 2026-05-06 00:25 | -21.13948 | -47.77529 | 1819 ft | 1 kts | 345° |
| 2026-05-06 00:25 | -21.13922 | -47.77536 | 1818 ft | 6 kts | 345° |
| 2026-05-06 00:25 | -21.13876 | -47.77535 | 1817 ft | 8 kts | 34° |
| 2026-05-06 00:26 | -21.13849 | -47.77477 | 1817 ft | 9 kts | 58° |
| 2026-05-06 00:26 | -21.13790 | -47.77464 | 1816 ft | 11 kts | 346° |
| 2026-05-06 00:26 | -21.13698 | -47.77492 | 1814 ft | 15 kts | 344° |
| 2026-05-06 00:26 | -21.13585 | -47.77528 | 1813 ft | 17 kts | 343° |
| 2026-05-06 00:27 | -21.13488 | -47.77559 | 1813 ft | 15 kts | 344° |
| 2026-05-06 00:27 | -21.13368 | -47.77596 | 1811 ft | 19 kts | 342° |
| 2026-05-06 00:27 | -21.13244 | -47.77637 | 1810 ft | 18 kts | 343° |
| 2026-05-06 00:27 | -21.13129 | -47.77675 | 1810 ft | 16 kts | 344° |
| 2026-05-06 00:28 | -21.13026 | -47.77708 | 1809 ft | 15 kts | 342° |
| 2026-05-06 00:28 | -21.12925 | -47.77741 | 1809 ft | 14 kts | 344° |
| 2026-05-06 00:28 | -21.12822 | -47.77774 | 1807 ft | 16 kts | 342° |
| 2026-05-06 00:28 | -21.12718 | -47.77808 | 1807 ft | 15 kts | 343° |
| 2026-05-06 00:29 | -21.12616 | -47.77802 | 1806 ft | 14 kts | 37° |
| 2026-05-06 00:29 | -21.12548 | -47.77733 | 1805 ft | 12 kts | 40° |
| 2026-05-06 00:29 | -21.12534 | -47.77687 | 1804 ft | 6 kts | 163° |
| 2026-05-06 00:29 | -21.12575 | -47.77678 | 1805 ft | 6 kts | 164° |
| 2026-05-06 00:30 | -21.12833 | -47.77595 | 1806 ft | 82 kts | 163° |
| 2026-05-06 00:30 | -21.13643 | -47.77334 | 1820 ft | 157 kts | 162° |
| 2026-05-06 00:30 | -21.14772 | -47.76944 | 2378 ft | 181 kts | 160° |
| 2026-05-06 00:30 | -21.15963 | -47.76540 | 3201 ft | 193 kts | 164° |
| 2026-05-06 00:31 | -21.17332 | -47.76156 | 3868 ft | 218 kts | 163° |
| 2026-05-06 00:31 | -21.18605 | -47.75792 | 4365 ft | 242 kts | 168° |
| 2026-05-06 00:31 | -21.20025 | -47.75841 | 4975 ft | 262 kts | 195° |
| 2026-05-06 00:31 | -21.21528 | -47.76901 | 5887 ft | 278 kts | 230° |
| 2026-05-06 00:32 | -21.22523 | -47.78698 | 6999 ft | 285 kts | 241° |
| 2026-05-06 00:32 | -21.23545 | -47.80397 | 8036 ft | 291 kts | 233° |
| 2026-05-06 00:32 | -21.24717 | -47.82097 | 9103 ft | 297 kts | 234° |
| 2026-05-06 00:32 | -21.25962 | -47.83956 | 10216 ft | 302 kts | 234° |
| 2026-05-06 00:33 | -21.27196 | -47.85811 | 11122 ft | 314 kts | 235° |
| 2026-05-06 00:33 | -21.28511 | -47.87780 | 11683 ft | 336 kts | 235° |
| 2026-05-06 00:33 | -21.29876 | -47.89824 | 12581 ft | 346 kts | 235° |
| 2026-05-06 00:33 | -21.31246 | -47.91877 | 13524 ft | 352 kts | 235° |
| 2026-05-06 00:34 | -21.32678 | -47.94024 | 14494 ft | 358 kts | 235° |
| 2026-05-06 00:34 | -21.34131 | -47.96204 | 15455 ft | 363 kts | 236° |
| 2026-05-06 00:34 | -21.35602 | -47.98411 | 16391 ft | 368 kts | 236° |
| 2026-05-06 00:34 | -21.37097 | -48.00656 | 17305 ft | 373 kts | 236° |
| 2026-05-06 00:35 | -21.38611 | -48.02930 | 18201 ft | 377 kts | 236° |
| 2026-05-06 00:35 | -21.40148 | -48.05238 | 19076 ft | 381 kts | 237° |
| 2026-05-06 00:35 | -21.41685 | -48.07547 | 19920 ft | 385 kts | 237° |
| 2026-05-06 00:35 | -21.43252 | -48.09902 | 20753 ft | 389 kts | 237° |
| 2026-05-06 00:36 | -21.44811 | -48.12245 | 21547 ft | 393 kts | 237° |
| 2026-05-06 00:36 | -21.46416 | -48.14658 | 22342 ft | 396 kts | 237° |
| 2026-05-06 00:36 | -21.48082 | -48.16980 | 23081 ft | 401 kts | 231° |
| 2026-05-06 00:36 | -21.50190 | -48.18980 | 23795 ft | 410 kts | 216° |
| 2026-05-06 00:37 | -21.52816 | -48.20255 | 24469 ft | 419 kts | 197° |
| 2026-05-06 00:37 | -21.55715 | -48.20727 | 25149 ft | 426 kts | 185° |
| 2026-05-06 00:37 | -21.58691 | -48.20581 | 25764 ft | 433 kts | 172° |
| 2026-05-06 00:37 | -21.61609 | -48.19793 | 26382 ft | 438 kts | 165° |
| 2026-05-06 00:38 | -21.64502 | -48.18861 | 26978 ft | 441 kts | 165° |
| 2026-05-06 00:38 | -21.67479 | -48.17971 | 27558 ft | 445 kts | 167° |
| 2026-05-06 00:38 | -21.70471 | -48.17110 | 28131 ft | 448 kts | 167° |
| 2026-05-06 00:38 | -21.73498 | -48.16233 | 28694 ft | 451 kts | 167° |
| 2026-05-06 00:39 | -21.76512 | -48.15353 | 29238 ft | 455 kts | 167° |
| 2026-05-06 00:39 | -21.79555 | -48.14467 | 29779 ft | 457 kts | 167° |
| 2026-05-06 00:39 | -21.82544 | -48.13624 | 30281 ft | 459 kts | 169° |
| 2026-05-06 00:39 | -21.85648 | -48.12970 | 30797 ft | 460 kts | 173° |
| 2026-05-06 00:40 | -21.88796 | -48.12426 | 31299 ft | 462 kts | 174° |
| 2026-05-06 00:40 | -21.91982 | -48.11852 | 31795 ft | 465 kts | 173° |
| 2026-05-06 00:40 | -21.95155 | -48.11248 | 32267 ft | 467 kts | 173° |
| 2026-05-06 00:40 | -21.98381 | -48.10629 | 32737 ft | 470 kts | 173° |
| 2026-05-06 00:41 | -22.01592 | -48.10016 | 33186 ft | 472 kts | 174° |
| 2026-05-06 00:41 | -22.04787 | -48.09405 | 33602 ft | 474 kts | 174° |
| 2026-05-06 00:41 | -22.08020 | -48.08784 | 34137 ft | 472 kts | 174° |
| 2026-05-06 00:41 | -22.11252 | -48.08161 | 34253 ft | 475 kts | 174° |
| 2026-05-06 00:42 | -22.14521 | -48.07530 | 34226 ft | 470 kts | 174° |
| 2026-05-06 00:42 | -22.20632 | -48.06348 | 34229 ft | 466 kts | 174° |
| 2026-05-06 00:43 | -22.26583 | -48.05197 | 34230 ft | 468 kts | 174° |
| 2026-05-06 00:43 | -22.32830 | -48.03987 | 34231 ft | 469 kts | 174° |
| 2026-05-06 00:44 | -22.38498 | -48.02887 | 34233 ft | 468 kts | 174° |
| 2026-05-06 00:44 | -22.44949 | -48.01634 | 34234 ft | 468 kts | 174° |
| 2026-05-06 00:45 | -22.51165 | -48.00425 | 34235 ft | 468 kts | 174° |
| 2026-05-06 00:45 | -22.56391 | -47.99408 | 34236 ft | 468 kts | 174° |
| 2026-05-06 00:46 | -22.62270 | -47.98264 | 34236 ft | 468 kts | 174° |
| 2026-05-06 00:46 | -22.68601 | -47.96973 | 34235 ft | 470 kts | 170° |
| 2026-05-06 00:47 | -22.74545 | -47.94185 | 34237 ft | 480 kts | 148° |
| 2026-05-06 00:47 | -22.79190 | -47.89575 | 34235 ft | 487 kts | 131° |
| 2026-05-06 00:47 | -22.81090 | -47.86526 | 34238 ft | 489 kts | 120° |
| 2026-05-06 00:48 | -22.82403 | -47.83721 | 34237 ft | 490 kts | 117° |
| 2026-05-06 00:48 | -22.85480 | -47.77110 | 34236 ft | 490 kts | 119° |
| 2026-05-06 00:49 | -22.88488 | -47.70918 | 34236 ft | 489 kts | 119° |
| 2026-05-06 00:49 | -22.91327 | -47.65009 | 33745 ft | 490 kts | 118° |
| 2026-05-06 00:49 | -22.92894 | -47.61748 | 32870 ft | 494 kts | 118° |
| 2026-05-06 00:50 | -22.94482 | -47.58445 | 31944 ft | 498 kts | 118° |
| 2026-05-06 00:50 | -22.96093 | -47.55090 | 30970 ft | 502 kts | 118° |
| 2026-05-06 00:50 | -22.97707 | -47.51727 | 29958 ft | 506 kts | 117° |
| 2026-05-06 00:50 | -22.99285 | -47.48438 | 28922 ft | 494 kts | 117° |
| 2026-05-06 00:51 | -23.00854 | -47.45162 | 27944 ft | 482 kts | 117° |
| 2026-05-06 00:51 | -23.02378 | -47.41981 | 27130 ft | 468 kts | 117° |
| 2026-05-06 00:51 | -23.03859 | -47.38886 | 26492 ft | 462 kts | 117° |
| 2026-05-06 00:51 | -23.05345 | -47.35780 | 25774 ft | 469 kts | 117° |
| 2026-05-06 00:52 | -23.06844 | -47.32643 | 25020 ft | 460 kts | 117° |
| 2026-05-06 00:52 | -23.08029 | -47.30151 | 24440 ft | 451 kts | 116° |
| 2026-05-06 00:52 | -23.08989 | -47.27803 | 23875 ft | 451 kts | 110° |
| 2026-05-06 00:52 | -23.09884 | -47.24660 | 23151 ft | 450 kts | 101° |
| 2026-05-06 00:53 | -23.10273 | -47.21830 | 22506 ft | 440 kts | 91° |
| 2026-05-06 00:53 | -23.10233 | -47.18530 | 21825 ft | 432 kts | 82° |
| 2026-05-06 00:53 | -23.09867 | -47.15556 | 21134 ft | 430 kts | 76° |
| 2026-05-06 00:53 | -23.09040 | -47.12447 | 20429 ft | 427 kts | 64° |
| 2026-05-06 00:54 | -23.08085 | -47.10402 | 19932 ft | 424 kts | 56° |
| 2026-05-06 00:54 | -23.06630 | -47.07930 | 19282 ft | 421 kts | 52° |
| 2026-05-06 00:54 | -23.04790 | -47.05394 | 18563 ft | 416 kts | 45° |
| 2026-05-06 00:54 | -23.02852 | -47.03107 | 17873 ft | 413 kts | 44° |
| 2026-05-06 00:55 | -23.00950 | -47.00864 | 17194 ft | 398 kts | 45° |
| 2026-05-06 00:55 | -22.99083 | -46.98636 | 16511 ft | 397 kts | 45° |
| 2026-05-06 00:55 | -22.97259 | -46.96472 | 16157 ft | 378 kts | 45° |
| 2026-05-06 00:55 | -22.95541 | -46.94442 | 15565 ft | 358 kts | 46° |
| 2026-05-06 00:56 | -22.93878 | -46.92485 | 14711 ft | 348 kts | 47° |
| 2026-05-06 00:56 | -22.92663 | -46.91056 | 14504 ft | 327 kts | 47° |
| 2026-05-06 00:56 | -22.91420 | -46.89595 | 14448 ft | 304 kts | 48° |
| 2026-05-06 00:56 | -22.90001 | -46.87880 | 14236 ft | 301 kts | 53° |
| 2026-05-06 00:57 | -22.89022 | -46.85970 | 14238 ft | 307 kts | 73° |
| 2026-05-06 00:57 | -22.88775 | -46.83624 | 14237 ft | 312 kts | 96° |
| 2026-05-06 00:57 | -22.89282 | -46.81340 | 14235 ft | 311 kts | 114° |
| 2026-05-06 00:57 | -22.90373 | -46.79512 | 14235 ft | 309 kts | 136° |
| 2026-05-06 00:58 | -22.92141 | -46.78231 | 14244 ft | 307 kts | 158° |
| 2026-05-06 00:58 | -22.94121 | -46.77354 | 14238 ft | 310 kts | 156° |
| 2026-05-06 00:58 | -22.95970 | -46.76138 | 14243 ft | 314 kts | 146° |
| 2026-05-06 00:58 | -22.97725 | -46.74690 | 14193 ft | 313 kts | 144° |
| 2026-05-06 00:59 | -22.99424 | -46.73290 | 13907 ft | 309 kts | 144° |
| 2026-05-06 00:59 | -23.01170 | -46.71839 | 13520 ft | 319 kts | 143° |
| 2026-05-06 00:59 | -23.02921 | -46.70356 | 13101 ft | 319 kts | 142° |
| 2026-05-06 00:59 | -23.04655 | -46.68876 | 12686 ft | 318 kts | 142° |
| 2026-05-06 01:00 | -23.06320 | -46.67453 | 12287 ft | 317 kts | 142° |
| 2026-05-06 01:00 | -23.08061 | -46.65962 | 11867 ft | 317 kts | 142° |
| 2026-05-06 01:00 | -23.09631 | -46.64615 | 11490 ft | 316 kts | 141° |
| 2026-05-06 01:00 | -23.11195 | -46.63272 | 11111 ft | 315 kts | 141° |
| 2026-05-06 01:01 | -23.12787 | -46.61905 | 10718 ft | 305 kts | 141° |
| 2026-05-06 01:01 | -23.14433 | -46.60490 | 10349 ft | 300 kts | 141° |
| 2026-05-06 01:01 | -23.16046 | -46.59103 | 10203 ft | 290 kts | 141° |
| 2026-05-06 01:01 | -23.17629 | -46.57741 | 9800 ft | 291 kts | 141° |
| 2026-05-06 01:02 | -23.19262 | -46.56489 | 9427 ft | 291 kts | 153° |
| 2026-05-06 01:02 | -23.21176 | -46.56062 | 9253 ft | 273 kts | 185° |
| 2026-05-06 01:02 | -23.22987 | -46.56571 | 9001 ft | 267 kts | 206° |
| 2026-05-06 01:02 | -23.24551 | -46.57608 | 8688 ft | 265 kts | 215° |
| 2026-05-06 01:03 | -23.26098 | -46.58720 | 8338 ft | 265 kts | 213° |
| 2026-05-06 01:03 | -23.27646 | -46.59807 | 7993 ft | 265 kts | 213° |
| 2026-05-06 01:03 | -23.29191 | -46.60902 | 7980 ft | 265 kts | 214° |
| 2026-05-06 01:03 | -23.30706 | -46.61976 | 7844 ft | 260 kts | 213° |
| 2026-05-06 01:04 | -23.32252 | -46.63074 | 7561 ft | 267 kts | 213° |
| 2026-05-06 01:04 | -23.33785 | -46.64162 | 7244 ft | 266 kts | 213° |
| 2026-05-06 01:04 | -23.35247 | -46.65202 | 6939 ft | 264 kts | 213° |
| 2026-05-06 01:04 | -23.36783 | -46.66293 | 6615 ft | 263 kts | 213° |
| 2026-05-06 01:05 | -23.38320 | -46.67386 | 6287 ft | 262 kts | 213° |
| 2026-05-06 01:05 | -23.39832 | -46.68460 | 6143 ft | 253 kts | 212° |
| 2026-05-06 01:05 | -23.41272 | -46.69138 | 6076 ft | 240 kts | 188° |
| 2026-05-06 01:05 | -23.42827 | -46.68948 | 5921 ft | 227 kts | 156° |
| 2026-05-06 01:06 | -23.44093 | -46.68107 | 5690 ft | 219 kts | 136° |
| 2026-05-06 01:06 | -23.44973 | -46.66891 | 5481 ft | 208 kts | 121° |
| 2026-05-06 01:06 | -23.45742 | -46.65636 | 5276 ft | 202 kts | 123° |
| 2026-05-06 01:06 | -23.46437 | -46.64529 | 5095 ft | 197 kts | 123° |
| 2026-05-06 01:07 | -23.47191 | -46.63305 | 4896 ft | 191 kts | 118° |
| 2026-05-06 01:07 | -23.47487 | -46.61955 | 4706 ft | 185 kts | 78° |
| 2026-05-06 01:07 | -23.46982 | -46.60652 | 4539 ft | 185 kts | 63° |
| 2026-05-06 01:07 | -23.46633 | -46.59337 | 4341 ft | 178 kts | 81° |
| 2026-05-06 01:08 | -23.46372 | -46.58048 | 4165 ft | 173 kts | 74° |
| 2026-05-06 01:08 | -23.46103 | -46.56995 | 4038 ft | 160 kts | 73° |
| 2026-05-06 01:08 | -23.45808 | -46.55857 | 3802 ft | 153 kts | 73° |
| 2026-05-06 01:08 | -23.45515 | -46.54769 | 3585 ft | 147 kts | 73° |
| 2026-05-06 01:09 | -23.45233 | -46.53721 | 3392 ft | 141 kts | 73° |
| 2026-05-06 01:09 | -23.44955 | -46.52686 | 3210 ft | 139 kts | 73° |
| 2026-05-06 01:09 | -23.44684 | -46.51677 | 3016 ft | 137 kts | 73° |
| 2026-05-06 01:09 | -23.44464 | -46.50857 | 2874 ft | 137 kts | 73° |
| 2026-05-06 01:10 | -23.44207 | -46.49908 | 2711 ft | 136 kts | 73° |
| 2026-05-06 01:10 | -23.43961 | -46.48998 | 2565 ft | 136 kts | 73° |
| 2026-05-06 01:10 | -23.43697 | -46.48022 | 2467 ft | 125 kts | 74° |
| 2026-05-06 01:10 | -23.43532 | -46.47393 | 2467 ft | 56 kts | 73° |
| 2026-05-06 01:11 | -23.43454 | -46.47107 | 2467 ft | 33 kts | 70° |
| 2026-05-06 01:11 | -23.43345 | -46.46911 | 2467 ft | 27 kts | 48° |
| 2026-05-06 01:11 | -23.43242 | -46.46795 | 2467 ft | 19 kts | 46° |
| 2026-05-06 01:11 | -23.43142 | -46.46708 | 2467 ft | 17 kts | 10° |
| 2026-05-06 01:12 | -23.43014 | -46.46738 | 2467 ft | 16 kts | 343° |
| 2026-05-06 01:12 | -23.42917 | -46.46770 | 2467 ft | 13 kts | 343° |
| 2026-05-06 01:12 | -23.42837 | -46.46796 | 2467 ft | 11 kts | 344° |
| 2026-05-06 01:12 | -23.42779 | -46.46845 | 2467 ft | 9 kts | 282° |
| 2026-05-06 01:13 | -23.42791 | -46.46912 | 2467 ft | 9 kts | 256° |
| 2026-05-06 01:13 | -23.42812 | -46.47003 | 2467 ft | 14 kts | 256° |
| 2026-05-06 01:13 | -23.42838 | -46.47118 | 2467 ft | 15 kts | 255° |
| 2026-05-06 01:13 | -23.42865 | -46.47223 | 2467 ft | 13 kts | 255° |
| 2026-05-06 01:14 | -23.42918 | -46.47426 | 2466 ft | 15 kts | 254° |
| 2026-05-06 01:14 | -23.42951 | -46.47548 | 2467 ft | 17 kts | 253° |
| 2026-05-06 01:14 | -23.42985 | -46.47675 | 2467 ft | 17 kts | 253° |
| 2026-05-06 01:15 | -23.43017 | -46.47797 | 2467 ft | 16 kts | 254° |
| 2026-05-06 01:15 | -23.43053 | -46.47928 | 2467 ft | 17 kts | 254° |
| 2026-05-06 01:15 | -23.43083 | -46.48047 | 2467 ft | 13 kts | 253° |
| 2026-05-06 01:15 | -23.43092 | -46.48128 | 2467 ft | 10 kts | 300° |
| 2026-05-06 01:16 | -23.43019 | -46.48160 | 2467 ft | 14 kts | 355° |
| 2026-05-06 01:16 | -23.42938 | -46.48169 | 2467 ft | 9 kts | 354° |
| 2026-05-06 01:16 | -23.42876 | -46.48175 | 2467 ft | 6 kts | 355° |
| 2026-05-06 01:16 | -23.42855 | -46.48155 | 2467 ft | 4 kts | 76° |
| 2026-05-06 01:17 | -23.42851 | -46.48126 | 2466 ft | 3 kts | 82° |
| 2026-05-06 01:17 | -23.42848 | -46.48106 | 2467 ft | 2 kts | 82° |
| 2026-05-06 01:17 | -23.42847 | -46.48096 | 2467 ft | 0 kts | 82° |